Terminal Aerodrome Forecast
Issued by NWS

Home | Current Version | Previous Version | Graphics & Text | Print | Product List | Glossary On
Versions: 1 2 3 4 5 6 7 8 9 10 11 12 13 14 15 16 17 18 19
000
FTUS43 KPAH 011900 AAA
TAFCGI
TAF AMD
KCGI 011906Z 0119/0218 22007KT 3SM BR VCSH OVC005
      TEMPO 0119/0120 1 1/2SM -SHRA BR SCT005 OVC011
     FM012000 23010KT 4SM BR OVC007
     FM012300 26012G20KT 5SM BR OVC012
     FM020200 31015G25KT P6SM OVC015
     FM021500 33012G20KT P6SM SCT015=

USA.gov is the U.S. government's official web portal to all federal, state and local government web resources and services.